createdAt,value
2022-08-26T00:09:08.257Z,11.3
2022-08-26T00:24:21.078Z,9
2022-08-26T00:39:30.031Z,10.9
2022-08-26T00:54:42.558Z,9.6
2022-08-26T01:09:52.592Z,10.3
2022-08-26T01:25:03.959Z,9.5
2022-08-26T01:40:13.635Z,10.2
2022-08-26T01:55:34.028Z,11.3
2022-08-26T02:10:43.576Z,10
2022-08-26T02:25:52.591Z,10.4
2022-08-26T02:41:01.772Z,10.4
2022-08-26T02:56:11.040Z,11.9
2022-08-26T03:11:21.884Z,11.3
2022-08-26T03:26:31.244Z,10.5
2022-08-26T03:41:41.238Z,12.5
2022-08-26T03:56:50.495Z,12.5
2022-08-26T04:11:59.093Z,12.2
2022-08-26T04:27:08.690Z,11.5
2022-08-26T04:42:26.352Z,11.2
2022-08-26T04:57:35.877Z,11.1
2022-08-26T05:12:46.365Z,12.8
2022-08-26T05:27:55.733Z,11.6
2022-08-26T05:43:06.650Z,11.7
2022-08-26T05:58:18.851Z,12.5
2022-08-26T06:13:32.167Z,12.5
2022-08-26T06:28:43.747Z,13.7
2022-08-26T06:43:55.376Z,12.8
2022-08-26T06:59:07.907Z,13.7
2022-08-26T07:14:22.078Z,14.7
2022-08-26T07:29:31.438Z,13.7
2022-08-26T07:44:40.738Z,13.4
2022-08-26T07:59:49.944Z,13.7
2022-08-26T08:14:59.692Z,13.4
2022-08-26T08:30:14.090Z,13.3
2022-08-26T08:45:24.124Z,12.3
2022-08-26T09:00:39.736Z,12.4
2022-08-26T09:15:49.738Z,12.1
2022-08-26T09:31:00.295Z,12.1
2022-08-26T09:46:11.182Z,12.1
2022-08-26T10:01:22.063Z,11.4
2022-08-26T10:16:32.691Z,12.2
2022-08-26T10:31:45.150Z,11.3
2022-08-26T10:47:02.668Z,10.3
2022-08-26T11:02:14.736Z,9.1
2022-08-26T11:17:25.295Z,10.1
2022-08-26T11:32:35.956Z,9.1
2022-08-26T11:47:49.280Z,9.6
2022-08-26T12:03:02.471Z,9.5
2022-08-26T12:18:13.058Z,9.4
2022-08-26T12:33:23.573Z,8.8
2022-08-26T12:48:32.129Z,8.9
2022-08-26T13:03:41.737Z,8.1
2022-08-26T13:18:49.801Z,8.5
2022-08-26T13:33:58.828Z,7.8
2022-08-26T13:49:08.037Z,7.5
2022-08-26T14:04:27.512Z,6.8
2022-08-26T14:19:36.666Z,8
2022-08-26T14:34:45.978Z,8.7
2022-08-26T14:49:55.464Z,8.8
2022-08-26T15:05:06.142Z,9.6
2022-08-26T15:20:16.255Z,7.6
2022-08-26T15:35:25.779Z,8.1
2022-08-26T15:50:34.515Z,9.3
2022-08-26T16:05:44.228Z,9.6
2022-08-26T16:21:14.171Z,10.6
2022-08-26T16:36:24.042Z,11
2022-08-26T16:51:38.500Z,11.4
2022-08-26T17:06:48.640Z,9.9
2022-08-26T17:21:58.017Z,10.3
2022-08-26T17:37:07.179Z,15.7
2022-08-26T17:52:15.793Z,18.3
2022-08-26T18:07:24.768Z,19.2
2022-08-26T18:22:33.984Z,18.7
2022-08-26T18:37:43.342Z,19.6
2022-08-26T18:52:52.442Z,19.1
2022-08-26T19:08:01.773Z,19.5
2022-08-26T19:23:32.174Z,19.2
2022-08-26T19:38:43.045Z,14.6
2022-08-26T19:53:52.507Z,11.6
2022-08-26T20:09:02.349Z,8.8
2022-08-26T20:24:11.588Z,7.5
2022-08-26T20:39:22.454Z,6.9
2022-08-26T20:54:32.362Z,5.6
2022-08-26T21:09:42.343Z,4.7
